Time;durP1;ratioP1;P1;durP2;ratioP2;P2;SDS_P1;SDS_P2;PMS_P1;PMS_P2;Temp;Humidity;BMP_temperature;BMP_pressure;BME280_temperature;BME280_humidity;BME280_pressure;Samples;Min_cycle;Max_cycle;Signal;HPM_P1;HPM_P2
2022/06/14 00:03:14;;;;;;;2.97;1.55;;;;;;;;;;5044201;28;20248;-79
2022/06/14 00:05:41;;;;;;;2.92;1.23;;;;;;;;;;5040710;28;20761;-79
2022/06/14 00:08:08;;;;;;;2.58;1.13;;;;;;;;;;5046355;28;20230;-79
2022/06/14 00:10:37;;;;;;;2.05;1.17;;;;;;;;;;5047746;28;20190;-81
2022/06/14 00:13:04;;;;;;;3.72;1.50;;;;;;;;;;5030734;28;20204;-80
2022/06/14 00:15:31;;;;;;;4.53;1.30;;;;;;;;;;5030420;28;20208;-80
2022/06/14 00:17:58;;;;;;;3.50;1.70;;;;;;;;;;5039139;28;20199;-81
2022/06/14 00:20:26;;;;;;;3.83;1.48;;;;;;;;;;5044574;28;20191;-79
2022/06/14 00:22:53;;;;;;;2.42;1.27;;;;;;;;;;5034754;28;20665;-80
2022/06/14 00:25:23;;;;;;;4.00;1.60;;;;;;;;;;5037686;28;20195;-80
2022/06/14 00:27:52;;;;;;;2.15;1.15;;;;;;;;;;5037082;28;20696;-80
2022/06/14 00:30:19;;;;;;;4.10;1.23;;;;;;;;;;5034758;28;20272;-80
2022/06/14 00:32:46;;;;;;;1.30;1.20;;;;;;;;;;5033034;28;20222;-80
2022/06/14 00:35:14;;;;;;;3.55;1.25;;;;;;;;;;5049136;28;20685;-81
2022/06/14 00:37:41;;;;;;;2.85;1.40;;;;;;;;;;5033642;28;20356;-80
2022/06/14 00:40:10;;;;;;;3.15;1.42;;;;;;;;;;5042446;28;20198;-80
2022/06/14 00:42:37;;;;;;;2.10;1.40;;;;;;;;;;5052118;28;20223;-81
2022/06/14 00:45:07;;;;;;;1.75;1.15;;;;;;;;;;5042762;28;20226;-81
2022/06/14 00:47:37;;;;;;;3.25;1.10;;;;;;;;;;5045488;28;20212;-81
2022/06/14 00:50:06;;;;;;;1.85;1.40;;;;;;;;;;5053536;28;20222;-79
2022/06/14 00:52:36;;;;;;;1.60;1.40;;;;;;;;;;5050826;28;20210;-79
2022/06/14 00:55:09;;;;;;;2.35;1.20;;;;;;;;;;5047388;28;20187;-79
2022/06/14 00:57:40;;;;;;;2.40;1.25;;;;;;;;;;5054476;28;20302;-80
2022/06/14 01:00:10;;;;;;;1.45;1.00;;;;;;;;;;5048844;28;20192;-80
2022/06/14 01:02:40;;;;;;;2.70;1.00;;;;;;;;;;5049149;28;20191;-82
2022/06/14 01:05:10;;;;;;;2.58;1.20;;;;;;;;;;5046713;28;20700;-80
2022/06/14 01:07:39;;;;;;;1.55;1.15;;;;;;;;;;5046972;28;20239;-81
2022/06/14 01:10:08;;;;;;;3.45;1.20;;;;;;;;;;5046779;28;20219;-82
2022/06/14 01:12:36;;;;;;;3.40;1.48;;;;;;;;;;5049410;28;20195;-80
2022/06/14 01:15:06;;;;;;;3.55;1.40;;;;;;;;;;5040120;28;20198;-80
2022/06/14 01:17:40;;;;;;;1.20;1.10;;;;;;;;;;5041751;28;20196;-80
2022/06/14 01:20:07;;;;;;;2.85;1.25;;;;;;;;;;5036521;28;20204;-80
2022/06/14 01:22:35;;;;;;;2.85;1.45;;;;;;;;;;5053272;28;20203;-81
2022/06/14 01:25:03;;;;;;;3.70;1.50;;;;;;;;;;5054500;28;20199;-81
2022/06/14 01:27:31;;;;;;;1.60;1.30;;;;;;;;;;5047648;28;20223;-81
2022/06/14 01:30:02;;;;;;;3.47;1.73;;;;;;;;;;5036313;28;20234;-80
2022/06/14 01:32:32;;;;;;;2.17;1.20;;;;;;;;;;5035237;28;20200;-81
2022/06/14 01:35:01;;;;;;;3.30;1.35;;;;;;;;;;5051156;28;20686;-82
2022/06/14 01:37:28;;;;;;;3.47;1.50;;;;;;;;;;5040828;28;20199;-80
2022/06/14 01:39:58;;;;;;;2.08;1.10;;;;;;;;;;5036421;28;20576;-81
2022/06/14 01:42:28;;;;;;;2.92;1.33;;;;;;;;;;5048691;28;20226;-80
2022/06/14 01:44:59;;;;;;;3.80;1.35;;;;;;;;;;5043301;28;20206;-82
2022/06/14 01:47:29;;;;;;;3.83;1.20;;;;;;;;;;5046341;28;20199;-80
2022/06/14 01:52:53;;;;;;;2.55;1.55;;;;;;;;;;5050153;28;20194;-80
2022/06/14 01:55:24;;;;;;;2.08;1.13;;;;;;;;;;5047264;28;20198;-83
2022/06/14 01:57:56;;;;;;;1.73;1.10;;;;;;;;;;5044157;28;20662;-81
2022/06/14 02:00:26;;;;;;;2.53;1.70;;;;;;;;;;5032811;28;20295;-79
2022/06/14 02:04:36;;;;;;;1.92;0.93;;;;;;;;;;5044644;28;20211;-80
2022/06/14 02:05:44;;;;;;;2.15;1.33;;;;;;;;;;5043844;28;20294;-80
2022/06/14 02:08:14;;;;;;;3.25;1.73;;;;;;;;;;5042096;28;20198;-79
2022/06/14 02:10:45;;;;;;;1.60;1.08;;;;;;;;;;5051111;28;20206;-80
2022/06/14 02:13:14;;;;;;;2.42;1.42;;;;;;;;;;5033775;28;20540;-82
2022/06/14 02:15:45;;;;;;;2.90;1.25;;;;;;;;;;5036962;28;20196;-83
2022/06/14 02:18:14;;;;;;;5.75;1.98;;;;;;;;;;5039659;28;20210;-83
2022/06/14 02:20:44;;;;;;;1.85;1.52;;;;;;;;;;5044899;28;20210;-82
2022/06/14 02:23:11;;;;;;;2.70;1.10;;;;;;;;;;5051601;28;20651;-82
2022/06/14 02:25:41;;;;;;;3.03;1.00;;;;;;;;;;5033391;28;20811;-82
2022/06/14 02:28:11;;;;;;;2.20;1.20;;;;;;;;;;5047395;28;20203;-83
2022/06/14 02:30:40;;;;;;;2.95;1.33;;;;;;;;;;5043135;28;20682;-82
2022/06/14 02:33:11;;;;;;;2.60;1.40;;;;;;;;;;5050399;28;20195;-83
2022/06/14 02:35:46;;;;;;;4.07;1.33;;;;;;;;;;5042381;28;20215;-83
2022/06/14 02:38:15;;;;;;;1.95;1.00;;;;;;;;;;5049245;28;20194;-82
2022/06/14 02:40:44;;;;;;;4.60;1.00;;;;;;;;;;5044337;28;20285;-82
2022/06/14 02:43:14;;;;;;;1.48;1.05;;;;;;;;;;5046206;28;20690;-82
2022/06/14 02:45:44;;;;;;;3.38;1.58;;;;;;;;;;5040471;28;20199;-82
2022/06/14 02:48:14;;;;;;;2.10;1.15;;;;;;;;;;5039870;28;20195;-82
2022/06/14 02:50:43;;;;;;;3.92;1.38;;;;;;;;;;5045095;28;20260;-82
2022/06/14 02:53:14;;;;;;;1.95;1.48;;;;;;;;;;5046850;28;20199;-80
2022/06/14 02:55:44;;;;;;;3.60;1.45;;;;;;;;;;5048821;28;20289;-81
2022/06/14 02:58:15;;;;;;;3.15;1.35;;;;;;;;;;5045344;28;20191;-81
2022/06/14 03:00:43;;;;;;;2.10;1.30;;;;;;;;;;5034181;28;20202;-79
2022/06/14 03:03:12;;;;;;;6.40;1.67;;;;;;;;;;5046546;28;20207;-81
2022/06/14 03:05:43;;;;;;;1.70;1.30;;;;;;;;;;5046323;28;20658;-80
2022/06/14 03:08:12;;;;;;;2.15;1.20;;;;;;;;;;5048393;28;20204;-79
2022/06/14 03:10:41;;;;;;;1.45;1.13;;;;;;;;;;5050428;28;20219;-80
2022/06/14 03:13:12;;;;;;;2.00;1.00;;;;;;;;;;5047931;28;20199;-80
2022/06/14 03:15:43;;;;;;;2.10;1.23;;;;;;;;;;5040162;28;20207;-80
2022/06/14 03:18:15;;;;;;;3.05;1.27;;;;;;;;;;5048951;28;20190;-80
2022/06/14 03:20:46;;;;;;;3.60;1.42;;;;;;;;;;5037504;28;20575;-82
2022/06/14 03:23:19;;;;;;;1.65;1.30;;;;;;;;;;5041953;28;20203;-80
2022/06/14 03:25:49;;;;;;;2.25;1.23;;;;;;;;;;5046891;28;20245;-80
2022/06/14 03:28:18;;;;;;;3.38;1.30;;;;;;;;;;5047351;28;20277;-80
2022/06/14 03:30:49;;;;;;;4.60;1.55;;;;;;;;;;5035834;28;20219;-81
2022/06/14 03:33:19;;;;;;;1.90;1.52;;;;;;;;;;5047685;28;20602;-80
2022/06/14 03:35:47;;;;;;;2.95;1.40;;;;;;;;;;5043878;28;20206;-80
2022/06/14 03:38:17;;;;;;;2.22;1.17;;;;;;;;;;5032830;28;20219;-80
2022/06/14 03:40:46;;;;;;;2.58;1.15;;;;;;;;;;5041307;28;20286;-81
2022/06/14 03:43:13;;;;;;;3.25;1.60;;;;;;;;;;5031670;28;20214;-80
2022/06/14 03:45:42;;;;;;;5.63;1.30;;;;;;;;;;5043607;28;20720;-79
2022/06/14 03:48:12;;;;;;;4.60;1.63;;;;;;;;;;5049494;28;20218;-79
2022/06/14 03:50:42;;;;;;;2.47;1.35;;;;;;;;;;5042181;28;20219;-80
2022/06/14 03:53:15;;;;;;;3.05;1.52;;;;;;;;;;5053133;28;20191;-80
2022/06/14 03:55:45;;;;;;;2.65;1.90;;;;;;;;;;5048093;28;20203;-79
2022/06/14 03:58:32;;;;;;;2.65;1.48;;;;;;;;;;5047617;28;20195;-79
2022/06/14 04:01:00;;;;;;;1.30;1.10;;;;;;;;;;5040206;28;20257;-80
2022/06/14 04:03:36;;;;;;;2.15;1.02;;;;;;;;;;5043881;28;20211;-79
2022/06/14 04:06:12;;;;;;;2.92;1.20;;;;;;;;;;5041163;28;20203;-80
2022/06/14 04:08:46;;;;;;;2.17;1.20;;;;;;;;;;5045663;28;20272;-82
2022/06/14 04:11:18;;;;;;;1.63;1.00;;;;;;;;;;5040182;28;20229;-79
2022/06/14 04:13:47;;;;;;;1.98;1.45;;;;;;;;;;5048601;28;20199;-82
2022/06/14 04:16:19;;;;;;;1.90;1.30;;;;;;;;;;5050384;28;20570;-83
2022/06/14 04:18:51;;;;;;;1.95;1.27;;;;;;;;;;5047976;28;20264;-80
2022/06/14 04:21:25;;;;;;;1.42;1.15;;;;;;;;;;5052751;28;20202;-82
2022/06/14 04:23:55;;;;;;;4.85;1.35;;;;;;;;;;5052956;28;20198;-80
2022/06/14 04:26:26;;;;;;;1.33;1.23;;;;;;;;;;5055175;28;20186;-80
2022/06/14 04:28:56;;;;;;;2.92;1.10;;;;;;;;;;5043885;28;20253;-82
2022/06/14 04:31:27;;;;;;;2.05;1.85;;;;;;;;;;5051771;28;20191;-81
2022/06/14 04:33:58;;;;;;;1.90;1.35;;;;;;;;;;5044516;28;20670;-81
2022/06/14 04:36:28;;;;;;;2.95;1.30;;;;;;;;;;5041174;28;20313;-80
2022/06/14 04:38:58;;;;;;;1.20;1.05;;;;;;;;;;5052410;28;20210;-82
2022/06/14 04:41:27;;;;;;;2.45;1.05;;;;;;;;;;5046079;28;20195;-81
2022/06/14 04:43:58;;;;;;;2.28;1.75;;;;;;;;;;5054412;28;20202;-80
2022/06/14 04:46:28;;;;;;;2.70;1.30;;;;;;;;;;5046341;28;20191;-80
2022/06/14 04:48:59;;;;;;;2.45;1.50;;;;;;;;;;5044201;28;20195;-81
2022/06/14 04:51:28;;;;;;;3.85;1.55;;;;;;;;;;5040078;28;20252;-81
2022/06/14 04:53:59;;;;;;;2.13;1.33;;;;;;;;;;5052893;28;20195;-81
2022/06/14 04:56:29;;;;;;;2.45;1.52;;;;;;;;;;5045578;28;20207;-81
2022/06/14 04:58:58;;;;;;;2.03;1.40;;;;;;;;;;5047077;28;20650;-82
2022/06/14 05:01:28;;;;;;;1.80;1.55;;;;;;;;;;5046322;28;20199;-81
2022/06/14 05:03:59;;;;;;;2.65;1.30;;;;;;;;;;5051651;28;20574;-82
2022/06/14 05:06:29;;;;;;;1.83;1.50;;;;;;;;;;5049475;28;20222;-82
2022/06/14 05:08:58;;;;;;;1.58;1.10;;;;;;;;;;5047886;28;20202;-82
2022/06/14 05:11:27;;;;;;;2.72;1.20;;;;;;;;;;5053642;28;20581;-83
2022/06/14 05:13:58;;;;;;;2.28;1.50;;;;;;;;;;5042957;28;20682;-83
2022/06/14 05:16:28;;;;;;;2.40;1.27;;;;;;;;;;5043793;28;20198;-82
2022/06/14 05:18:59;;;;;;;2.65;1.95;;;;;;;;;;5048973;28;20675;-81
2022/06/14 05:21:35;;;;;;;3.35;1.70;;;;;;;;;;5046211;28;20191;-82
2022/06/14 05:24:02;;;;;;;2.10;1.30;;;;;;;;;;5048648;28;20194;-81
2022/06/14 05:26:38;;;;;;;3.05;1.80;;;;;;;;;;5042914;28;20214;-81
2022/06/14 05:29:10;;;;;;;3.25;1.45;;;;;;;;;;5040571;28;20726;-81
2022/06/14 05:31:39;;;;;;;3.20;1.80;;;;;;;;;;5045199;28;20195;-83
2022/06/14 05:34:14;;;;;;;4.13;1.77;;;;;;;;;;5047366;28;20202;-79
2022/06/14 05:36:45;;;;;;;3.70;1.80;;;;;;;;;;5049344;28;20776;-79
2022/06/14 05:39:16;;;;;;;3.72;1.90;;;;;;;;;;5050390;28;20195;-81
2022/06/14 05:41:46;;;;;;;2.25;1.50;;;;;;;;;;5053610;28;20237;-79
2022/06/14 05:44:13;;;;;;;2.15;1.63;;;;;;;;;;5047793;28;20638;-82
2022/06/14 05:46:43;;;;;;;2.10;1.50;;;;;;;;;;5047251;28;20653;-80
2022/06/14 05:49:16;;;;;;;2.60;1.40;;;;;;;;;;5046087;28;20194;-82
2022/06/14 05:51:45;;;;;;;5.45;1.40;;;;;;;;;;5044884;28;20191;-80
2022/06/14 05:54:18;;;;;;;2.53;1.30;;;;;;;;;;5046300;28;20203;-81
2022/06/14 05:56:47;;;;;;;2.72;1.50;;;;;;;;;;5044334;28;20194;-82
2022/06/14 05:59:18;;;;;;;3.63;1.30;;;;;;;;;;5037822;28;20191;-79
2022/06/14 06:01:49;;;;;;;6.60;1.70;;;;;;;;;;5040058;28;20195;-76
2022/06/14 06:04:18;;;;;;;3.33;1.20;;;;;;;;;;5041659;28;20203;-77
2022/06/14 06:06:47;;;;;;;2.15;1.20;;;;;;;;;;5046610;28;20563;-76
2022/06/14 06:09:17;;;;;;;2.25;1.30;;;;;;;;;;5039450;28;20198;-77
2022/06/14 06:11:46;;;;;;;2.75;1.10;;;;;;;;;;5045078;28;20222;-77
2022/06/14 06:14:15;;;;;;;1.90;1.30;;;;;;;;;;5036239;28;20208;-77
2022/06/14 06:16:45;;;;;;;2.45;1.30;;;;;;;;;;5043197;28;20203;-78
2022/06/14 06:19:15;;;;;;;2.30;1.30;;;;;;;;;;5043364;28;20203;-78
2022/06/14 06:21:46;;;;;;;3.40;2.20;;;;;;;;;;5044811;28;20609;-78
2022/06/14 06:24:18;;;;;;;2.08;1.35;;;;;;;;;;5051079;28;20191;-78
2022/06/14 06:26:47;;;;;;;4.10;1.30;;;;;;;;;;5052657;28;20191;-78
2022/06/14 06:29:17;;;;;;;3.50;1.38;;;;;;;;;;5044146;28;20203;-80
2022/06/14 06:31:44;;;;;;;2.67;1.27;;;;;;;;;;5034164;28;20277;-80
2022/06/14 06:34:14;;;;;;;2.13;1.25;;;;;;;;;;5038175;28;20230;-81
2022/06/14 06:36:47;;;;;;;7.28;1.52;;;;;;;;;;5039618;28;20200;-79
2022/06/14 06:39:21;;;;;;;6.03;1.50;;;;;;;;;;5048455;28;20670;-79
2022/06/14 06:41:54;;;;;;;3.85;1.40;;;;;;;;;;5044525;28;20265;-79
2022/06/14 06:44:24;;;;;;;5.30;1.45;;;;;;;;;;5035893;28;20601;-79
2022/06/14 06:46:53;;;;;;;3.30;1.27;;;;;;;;;;5038301;28;20602;-79
2022/06/14 06:49:29;;;;;;;3.13;1.13;;;;;;;;;;5047578;28;20195;-79
2022/06/14 06:52:01;;;;;;;1.80;1.15;;;;;;;;;;5052500;28;20309;-78
2022/06/14 06:54:32;;;;;;;2.40;1.73;;;;;;;;;;5054369;28;20196;-78
2022/06/14 06:57:00;;;;;;;2.67;1.30;;;;;;;;;;5050145;28;20356;-79
2022/06/14 06:59:30;;;;;;;3.40;1.70;;;;;;;;;;5039279;28;20208;-78
2022/06/14 07:02:00;;;;;;;2.80;1.48;;;;;;;;;;5041934;28;20198;-80
2022/06/14 07:07:14;;;;;;;2.55;1.35;;;;;;;;;;5044606;28;20191;-80
2022/06/14 07:09:42;;;;;;;2.47;1.13;;;;;;;;;;5045529;28;20199;-80
2022/06/14 07:12:14;;;;;;;2.97;1.40;;;;;;;;;;5046053;28;20207;-80
2022/06/14 07:14:47;;;;;;;7.50;1.60;;;;;;;;;;5038853;28;20203;-81
2022/06/14 07:17:17;;;;;;;1.65;1.20;;;;;;;;;;5036340;28;20202;-80
2022/06/14 07:19:46;;;;;;;2.85;1.52;;;;;;;;;;5042970;28;20209;-80
2022/06/14 07:22:16;;;;;;;5.78;2.03;;;;;;;;;;5044703;28;20286;-79
2022/06/14 07:24:49;;;;;;;1.58;1.13;;;;;;;;;;5043361;28;20199;-80
2022/06/14 07:27:17;;;;;;;3.03;1.30;;;;;;;;;;5044485;28;20202;-80
2022/06/14 07:29:47;;;;;;;2.08;1.10;;;;;;;;;;5048005;28;20199;-80
2022/06/14 07:32:17;;;;;;;2.20;1.35;;;;;;;;;;5039722;28;20249;-79
2022/06/14 07:34:45;;;;;;;2.17;1.10;;;;;;;;;;5044658;28;20555;-80
2022/06/14 07:37:19;;;;;;;2.15;1.00;;;;;;;;;;5047361;28;20204;-80
2022/06/14 07:39:49;;;;;;;2.35;1.40;;;;;;;;;;5036595;28;20196;-80
2022/06/14 07:42:17;;;;;;;1.65;1.00;;;;;;;;;;5036044;28;20685;-79
2022/06/14 07:44:49;;;;;;;5.00;1.10;;;;;;;;;;5043046;28;20585;-82
2022/06/14 07:47:19;;;;;;;2.83;1.30;;;;;;;;;;5036845;28;20198;-80
2022/06/14 07:49:52;;;;;;;3.25;1.23;;;;;;;;;;5043602;28;20199;-80
2022/06/14 07:52:23;;;;;;;3.70;1.50;;;;;;;;;;5033552;28;20281;-82
2022/06/14 07:54:52;;;;;;;2.85;1.33;;;;;;;;;;5038081;28;20703;-79
2022/06/14 07:57:21;;;;;;;3.55;1.35;;;;;;;;;;5042295;28;20277;-81
2022/06/14 07:59:51;;;;;;;3.50;1.48;;;;;;;;;;5030220;28;20217;-80
2022/06/14 08:02:22;;;;;;;1.40;1.20;;;;;;;;;;5037689;28;20234;-82
2022/06/14 08:04:54;;;;;;;2.70;1.10;;;;;;;;;;5039868;28;20198;-82
2022/06/14 08:07:23;;;;;;;2.70;1.20;;;;;;;;;;5034539;28;20234;-83
2022/06/14 08:09:53;;;;;;;4.43;1.65;;;;;;;;;;5040631;28;20203;-80
2022/06/14 08:12:22;;;;;;;2.13;1.20;;;;;;;;;;5027582;28;20599;-81
2022/06/14 08:14:55;;;;;;;3.72;1.30;;;;;;;;;;5043912;28;20643;-81
2022/06/14 08:17:25;;;;;;;1.45;0.98;;;;;;;;;;5037425;28;20202;-80
2022/06/14 08:19:55;;;;;;;2.83;1.70;;;;;;;;;;5035705;28;20203;-80
2022/06/14 08:22:29;;;;;;;2.45;1.20;;;;;;;;;;5030724;28;20200;-79
2022/06/14 08:25:00;;;;;;;3.20;1.67;;;;;;;;;;5038959;28;20210;-80
2022/06/14 08:27:29;;;;;;;2.33;1.30;;;;;;;;;;5042435;28;20232;-80
2022/06/14 08:29:59;;;;;;;1.90;1.30;;;;;;;;;;5039147;28;20206;-80
2022/06/14 08:32:30;;;;;;;4.90;1.60;;;;;;;;;;5038576;28;20853;-80
2022/06/14 08:35:00;;;;;;;1.73;1.43;;;;;;;;;;5040604;28;20875;-77
2022/06/14 08:37:34;;;;;;;2.40;1.37;;;;;;;;;;5036960;28;20507;-82
2022/06/14 08:40:04;;;;;;;4.27;1.70;;;;;;;;;;5040827;28;21038;-78
2022/06/14 08:42:32;;;;;;;3.77;1.70;;;;;;;;;;5035309;28;20484;-78
2022/06/14 08:45:01;;;;;;;2.80;1.40;;;;;;;;;;5034986;28;20502;-77
2022/06/14 08:47:46;;;;;;;2.60;1.23;;;;;;;;;;5033982;28;20464;-78
2022/06/14 08:50:27;;;;;;;3.43;2.07;;;;;;;;;;5036951;28;20464;-78
2022/06/14 08:53:09;;;;;;;3.83;2.40;;;;;;;;;;5027702;28;20551;-77
2022/06/14 08:55:52;;;;;;;2.73;1.47;;;;;;;;;;5041491;28;20824;-78
2022/06/14 08:58:38;;;;;;;1.97;1.57;;;;;;;;;;5040560;28;20474;-79
2022/06/14 09:01:10;;;;;;;4.73;1.93;;;;;;;;;;5033245;28;20461;-83
2022/06/14 09:03:52;;;;;;;2.25;1.20;;;;;;;;;;5046981;28;20455;-79
2022/06/14 09:06:33;;;;;;;2.90;2.10;;;;;;;;;;5041621;28;20212;-78
2022/06/14 09:09:21;;;;;;;3.08;1.50;;;;;;;;;;5041669;28;20212;-77
2022/06/14 09:12:12;;;;;;;2.40;1.42;;;;;;;;;;5028201;28;20221;-77
2022/06/14 09:14:57;;;;;;;2.03;1.40;;;;;;;;;;4992067;28;20217;-78
2022/06/14 09:17:47;;;;;;;5.63;1.70;;;;;;;;;;5031666;28;20290;-78
2022/06/14 09:20:19;;;;;;;1.70;1.30;;;;;;;;;;5034674;28;20213;-80
2022/06/14 09:22:54;;;;;;;2.70;1.30;;;;;;;;;;5029755;28;20666;-77
2022/06/14 09:25:33;;;;;;;3.87;1.53;;;;;;;;;;5029052;28;20459;-78
2022/06/14 09:28:11;;;;;;;2.00;1.60;;;;;;;;;;5032103;28;20471;-79
2022/06/14 09:31:01;;;;;;;3.20;1.87;;;;;;;;;;5032718;28;20457;-78
2022/06/14 09:33:49;;;;;;;2.10;1.33;;;;;;;;;;5035331;28;20475;-77
2022/06/14 09:36:25;;;;;;;2.33;1.60;;;;;;;;;;5025487;28;20534;-81
2022/06/14 09:39:11;;;;;;;2.20;1.60;;;;;;;;;;5034541;28;20469;-80
2022/06/14 09:41:50;;;;;;;3.60;1.80;;;;;;;;;;5032931;28;20948;-79
2022/06/14 09:44:34;;;;;;;2.25;1.40;;;;;;;;;;5028719;28;20534;-79
2022/06/14 09:47:21;;;;;;;3.20;1.60;;;;;;;;;;5028728;28;20202;-78
2022/06/14 09:50:07;;;;;;;2.77;1.67;;;;;;;;;;5038094;28;20230;-79
2022/06/14 09:52:57;;;;;;;3.30;1.77;;;;;;;;;;5039188;28;21019;-76
2022/06/14 09:55:31;;;;;;;4.93;1.98;;;;;;;;;;5027188;28;20516;-80
2022/06/14 09:58:09;;;;;;;2.03;1.80;;;;;;;;;;5044359;28;20672;-77
2022/06/14 10:00:44;;;;;;;3.00;1.77;;;;;;;;;;5032776;28;20956;-79
2022/06/14 10:03:26;;;;;;;2.57;1.97;;;;;;;;;;5033762;28;21090;-78
2022/06/14 10:06:08;;;;;;;5.70;1.67;;;;;;;;;;5040812;28;20488;-79
2022/06/14 10:08:53;;;;;;;4.53;1.63;;;;;;;;;;5044470;28;20464;-78
2022/06/14 10:11:38;;;;;;;1.83;1.73;;;;;;;;;;5042043;28;20499;-77
2022/06/14 10:14:18;;;;;;;4.07;2.03;;;;;;;;;;5037291;28;20460;-79
2022/06/14 10:17:01;;;;;;;5.33;1.80;;;;;;;;;;5029605;28;20909;-79
2022/06/14 10:19:37;;;;;;;3.40;1.50;;;;;;;;;;5039267;28;20449;-77
2022/06/14 10:22:11;;;;;;;2.17;1.70;;;;;;;;;;5031559;28;21201;-76
2022/06/14 10:24:41;;;;;;;5.90;1.77;;;;;;;;;;5045975;28;20443;-76
2022/06/14 10:30:08;;;;;;;2.73;1.93;;;;;;;;;;5040090;28;20459;-79
2022/06/14 10:33:02;;;;;;;2.63;2.13;;;;;;;;;;5037149;28;20477;-77
2022/06/14 10:35:33;;;;;;;1.90;1.60;;;;;;;;;;5034005;28;20640;-80
2022/06/14 10:38:20;;;;;;;2.53;1.60;;;;;;;;;;5046092;28;20460;-78
2022/06/14 10:40:54;;;;;;;2.97;2.03;;;;;;;;;;5032565;28;20469;-78
2022/06/14 10:43:26;;;;;;;2.20;1.77;;;;;;;;;;5036351;28;20223;-78
2022/06/14 10:45:57;;;;;;;1.92;1.55;;;;;;;;;;5039248;28;20514;-80
2022/06/14 10:48:48;;;;;;;2.77;1.40;;;;;;;;;;5041966;28;20657;-75
2022/06/14 10:51:23;;;;;;;2.53;1.77;;;;;;;;;;4983330;28;20562;-77
2022/06/14 10:53:55;;;;;;;5.63;2.10;;;;;;;;;;5044988;28;20459;-76
2022/06/14 10:56:34;;;;;;;3.50;1.93;;;;;;;;;;5040886;28;20504;-78
2022/06/14 10:59:09;;;;;;;1.67;1.57;;;;;;;;;;5038660;28;20466;-79
2022/06/14 11:01:42;;;;;;;4.68;2.28;;;;;;;;;;5043725;28;20961;-78
2022/06/14 11:04:13;;;;;;;2.28;1.50;;;;;;;;;;5042700;28;20672;-76
2022/06/14 11:06:49;;;;;;;4.38;2.00;;;;;;;;;;5036582;28;20685;-77
2022/06/14 11:09:24;;;;;;;3.03;2.00;;;;;;;;;;5036621;28;20205;-78
2022/06/14 11:11:57;;;;;;;3.10;1.90;;;;;;;;;;5048356;28;20465;-77
2022/06/14 11:14:28;;;;;;;7.85;2.30;;;;;;;;;;5041829;28;20458;-78
2022/06/14 11:17:06;;;;;;;4.05;1.80;;;;;;;;;;5044066;28;20583;-79
2022/06/14 11:19:39;;;;;;;2.63;1.73;;;;;;;;;;5047470;28;20229;-77
2022/06/14 11:22:12;;;;;;;4.30;1.80;;;;;;;;;;5039029;28;20461;-80
2022/06/14 11:24:41;;;;;;;5.00;2.17;;;;;;;;;;5042455;28;20837;-79
2022/06/14 11:27:14;;;;;;;3.30;1.70;;;;;;;;;;5045540;28;20468;-79
2022/06/14 11:29:46;;;;;;;7.18;2.40;;;;;;;;;;5030726;28;20457;-77
2022/06/14 11:32:17;;;;;;;1.43;1.33;;;;;;;;;;5032211;28;20716;-77
2022/06/14 11:34:50;;;;;;;2.00;1.80;;;;;;;;;;5045420;28;20459;-77
2022/06/14 11:37:27;;;;;;;4.60;1.80;;;;;;;;;;5032532;28;20461;-76
2022/06/14 11:39:56;;;;;;;3.60;1.67;;;;;;;;;;5030685;28;20543;-77
2022/06/14 11:42:24;;;;;;;2.57;1.60;;;;;;;;;;5041951;28;20484;-75
2022/06/14 11:44:58;;;;;;;3.03;1.53;;;;;;;;;;5041033;28;20458;-78
2022/06/14 11:47:30;;;;;;;3.30;2.00;;;;;;;;;;5040368;28;20508;-77
2022/06/14 11:50:01;;;;;;;5.30;1.65;;;;;;;;;;5045331;28;20512;-78
2022/06/14 11:52:38;;;;;;;2.20;1.90;;;;;;;;;;5031051;28;20313;-79
2022/06/14 11:55:12;;;;;;;2.35;2.15;;;;;;;;;;5034112;28;20463;-79
2022/06/14 11:57:43;;;;;;;3.95;1.98;;;;;;;;;;5045018;28;20196;-76
2022/06/14 12:00:18;;;;;;;3.03;2.22;;;;;;;;;;5030222;28;20626;-79
2022/06/14 12:02:56;;;;;;;3.78;1.40;;;;;;;;;;5038120;28;20294;-76
2022/06/14 12:05:29;;;;;;;4.10;2.10;;;;;;;;;;5045190;28;20284;-77
2022/06/14 12:08:01;;;;;;;3.58;1.85;;;;;;;;;;5043028;28;20200;-76
2022/06/14 12:10:44;;;;;;;3.78;1.83;;;;;;;;;;5044460;28;20195;-77
2022/06/14 12:13:17;;;;;;;1.80;1.30;;;;;;;;;;5035901;28;20842;-75
2022/06/14 12:15:48;;;;;;;2.47;1.92;;;;;;;;;;5042087;28;20200;-76
2022/06/14 12:18:18;;;;;;;3.13;2.17;;;;;;;;;;5048120;28;20197;-76
2022/06/14 12:20:50;;;;;;;3.83;1.80;;;;;;;;;;5038005;28;20228;-79
2022/06/14 12:23:21;;;;;;;3.42;2.30;;;;;;;;;;5042621;28;20198;-76
2022/06/14 12:28:40;;;;;;;2.40;1.50;;;;;;;;;;5035272;28;20202;-79
2022/06/14 12:31:11;;;;;;;3.85;1.75;;;;;;;;;;5047809;28;20209;-79
2022/06/14 12:33:42;;;;;;;1.73;1.50;;;;;;;;;;5043505;28;20253;-77
2022/06/14 12:36:14;;;;;;;2.03;1.60;;;;;;;;;;5043000;28;20216;-76
2022/06/14 12:38:43;;;;;;;3.72;1.88;;;;;;;;;;5048775;28;20458;-77
2022/06/14 12:41:14;;;;;;;2.10;1.80;;;;;;;;;;5040844;28;20208;-77
2022/06/14 12:43:45;;;;;;;1.70;1.60;;;;;;;;;;5048328;28;20665;-79
2022/06/14 12:46:13;;;;;;;3.25;1.75;;;;;;;;;;5041388;28;20620;-76
2022/06/14 12:48:43;;;;;;;2.88;1.50;;;;;;;;;;5038100;28;20201;-76
2022/06/14 12:51:12;;;;;;;3.08;1.55;;;;;;;;;;5043095;28;20199;-78
2022/06/14 12:53:41;;;;;;;2.28;1.90;;;;;;;;;;5038979;28;20213;-75
2022/06/14 12:56:12;;;;;;;3.45;1.70;;;;;;;;;;5036347;28;20656;-76
2022/06/14 12:58:43;;;;;;;1.73;1.23;;;;;;;;;;5041971;28;20655;-77
2022/06/14 13:01:13;;;;;;;2.90;1.63;;;;;;;;;;5046651;28;20675;-78
2022/06/14 13:03:50;;;;;;;3.40;1.67;;;;;;;;;;5043315;28;20259;-77
2022/06/14 13:06:35;;;;;;;1.85;1.42;;;;;;;;;;5042256;28;20314;-77
2022/06/14 13:09:06;;;;;;;3.15;1.60;;;;;;;;;;5038635;28;20201;-76
2022/06/14 13:11:38;;;;;;;2.15;1.67;;;;;;;;;;5041598;28;20226;-79
2022/06/14 13:14:09;;;;;;;2.72;1.80;;;;;;;;;;5038412;28;20203;-75
2022/06/14 13:16:51;;;;;;;3.30;1.60;;;;;;;;;;5039071;28;20201;-76
2022/06/14 13:19:23;;;;;;;2.13;1.52;;;;;;;;;;5045248;28;20597;-77
2022/06/14 13:22:11;;;;;;;2.50;1.48;;;;;;;;;;5044960;28;20204;-77
2022/06/14 13:24:43;;;;;;;2.47;1.30;;;;;;;;;;5028188;28;20282;-79
2022/06/14 13:27:14;;;;;;;3.72;1.50;;;;;;;;;;5037947;28;20213;-78
2022/06/14 13:30:05;;;;;;;3.05;1.75;;;;;;;;;;5031992;28;20582;-75
2022/06/14 13:32:41;;;;;;;2.65;1.60;;;;;;;;;;5023220;28;20228;-79
2022/06/14 13:35:26;;;;;;;3.10;2.28;;;;;;;;;;5052877;28;20638;-77
2022/06/14 13:37:55;;;;;;;4.83;1.87;;;;;;;;;;5052373;28;20543;-76
2022/06/14 13:40:23;;;;;;;3.63;1.90;;;;;;;;;;5052703;28;20461;-74
2022/06/14 13:42:56;;;;;;;6.55;2.00;;;;;;;;;;5052093;28;20214;-77
2022/06/14 13:45:26;;;;;;;3.58;1.27;;;;;;;;;;5046245;28;20574;-75
2022/06/14 13:47:56;;;;;;;1.58;1.00;;;;;;;;;;5047629;28;20260;-76
2022/06/14 13:50:28;;;;;;;4.70;1.38;;;;;;;;;;5042272;28;20197;-79
2022/06/14 13:52:58;;;;;;;2.50;1.42;;;;;;;;;;5051883;28;20218;-76
2022/06/14 13:55:27;;;;;;;2.30;1.40;;;;;;;;;;5048318;28;20611;-76
2022/06/14 13:57:57;;;;;;;1.83;1.05;;;;;;;;;;5052126;28;20566;-74
2022/06/14 14:00:29;;;;;;;4.20;1.50;;;;;;;;;;5043894;28;20232;-76
2022/06/14 14:03:00;;;;;;;4.97;1.70;;;;;;;;;;5047996;28;20204;-76
2022/06/14 14:05:30;;;;;;;4.10;1.92;;;;;;;;;;5036545;28;20652;-81
2022/06/14 14:08:04;;;;;;;4.65;1.92;;;;;;;;;;5042256;28;20202;-78
2022/06/14 14:10:36;;;;;;;6.65;2.15;;;;;;;;;;5044623;28;20707;-81
2022/06/14 14:13:05;;;;;;;11.75;1.80;;;;;;;;;;5044229;28;20218;-79
2022/06/14 14:15:35;;;;;;;7.22;1.90;;;;;;;;;;5048726;28;20202;-78
2022/06/14 14:18:07;;;;;;;2.72;1.60;;;;;;;;;;5044762;28;20202;-79
2022/06/14 14:20:40;;;;;;;3.55;1.70;;;;;;;;;;5037749;28;20653;-79
2022/06/14 14:23:13;;;;;;;2.65;1.80;;;;;;;;;;5033083;28;20213;-79
2022/06/14 14:25:45;;;;;;;3.67;1.70;;;;;;;;;;5033551;28;20822;-81
2022/06/14 14:28:18;;;;;;;4.63;1.60;;;;;;;;;;5032407;28;20460;-79
2022/06/14 14:30:53;;;;;;;3.33;1.73;;;;;;;;;;5033715;28;20471;-80
2022/06/14 14:33:24;;;;;;;6.88;1.58;;;;;;;;;;5048037;28;20247;-79
2022/06/14 14:35:56;;;;;;;4.65;1.92;;;;;;;;;;5048116;28;20223;-79
2022/06/14 14:38:26;;;;;;;4.93;1.38;;;;;;;;;;5033443;28;20667;-80
2022/06/14 14:43:43;;;;;;;4.97;2.42;;;;;;;;;;5047779;28;20265;-79
2022/06/14 14:46:13;;;;;;;3.50;2.05;;;;;;;;;;5037312;28;20211;-80
2022/06/14 14:48:42;;;;;;;4.82;1.35;;;;;;;;;;5043785;28;20554;-77
2022/06/14 14:51:16;;;;;;;5.40;1.50;;;;;;;;;;5035934;28;20577;-79
2022/06/14 14:53:47;;;;;;;3.28;1.85;;;;;;;;;;5036058;28;20501;-75
2022/06/14 14:56:18;;;;;;;4.18;1.30;;;;;;;;;;5046126;28;20246;-78
2022/06/14 14:58:50;;;;;;;3.50;1.60;;;;;;;;;;5049423;28;20193;-77
2022/06/14 15:07:23;;;;;;;2.28;1.10;;;;;;;;;;5029507;28;20210;-77
2022/06/14 15:09:52;;;;;;;2.75;1.20;;;;;;;;;;5047741;28;20204;-75
2022/06/14 15:12:22;;;;;;;6.68;1.30;;;;;;;;;;5049150;28;20196;-76
2022/06/14 15:15:02;;;;;;;3.58;1.70;;;;;;;;;;5033333;28;20198;-78
2022/06/14 15:20:17;;;;;;;5.57;3.15;;;;;;;;;;5044495;28;20271;-79
2022/06/14 15:22:46;;;;;;;2.30;1.10;;;;;;;;;;5041947;28;20415;-78
2022/06/14 15:25:18;;;;;;;7.93;1.92;;;;;;;;;;5044922;28;20198;-78
2022/06/14 15:27:48;;;;;;;3.38;1.20;;;;;;;;;;5038927;28;20190;-80
2022/06/14 15:30:16;;;;;;;6.00;1.63;;;;;;;;;;5035750;28;20201;-79
2022/06/14 15:32:43;;;;;;;5.43;1.60;;;;;;;;;;5041623;28;20477;-79
2022/06/14 15:35:22;;;;;;;4.23;1.60;;;;;;;;;;5049651;28;20926;-77
2022/06/14 15:38:10;;;;;;;5.33;1.47;;;;;;;;;;5036413;28;20481;-80